Time;durP1;ratioP1;P1;durP2;ratioP2;P2;SDS_P1;SDS_P2;PMS_P1;PMS_P2;Temp;Humidity;BMP_temperature;BMP_pressure;BME280_temperature;BME280_humidity;BME280_pressure;Samples;Min_cycle;Max_cycle;Signal;HPM_P1;HPM_P2
2021/12/30 00:00:21;;;;;;;56.37;8.10;;;9.40;99.90;;;;;;5045923;28;20498;-82
2021/12/30 00:02:48;;;;;;;58.90;7.53;;;9.30;99.90;;;;;;5032481;28;20572;-80
2021/12/30 00:05:15;;;;;;;62.50;7.97;;;9.30;99.90;;;;;;5039025;28;20059;-78
2021/12/30 00:07:41;;;;;;;53.23;7.80;;;9.30;99.90;;;;;;5047809;28;20059;-78
2021/12/30 00:10:08;;;;;;;67.40;9.10;;;9.30;99.90;;;;;;5022753;28;20047;-80
2021/12/30 00:12:34;;;;;;;59.67;9.20;;;9.30;99.90;;;;;;5060263;28;20041;-80
2021/12/30 00:15:00;;;;;;;55.43;8.10;;;9.30;99.90;;;;;;5054964;28;20086;-80
2021/12/30 00:17:25;;;;;;;54.90;7.77;;;9.30;99.90;;;;;;5041231;28;20048;-80
2021/12/30 00:19:52;;;;;;;64.03;7.83;;;9.20;99.90;;;;;;5060883;28;20418;-78
2021/12/30 00:22:18;;;;;;;52.43;8.10;;;9.20;99.90;;;;;;5055966;28;20051;-79
2021/12/30 00:24:44;;;;;;;47.43;7.10;;;9.20;99.90;;;;;;5047764;28;20035;-79
2021/12/30 00:27:09;;;;;;;57.27;7.97;;;9.20;99.90;;;;;;5057277;28;20040;-80
2021/12/30 00:29:36;;;;;;;60.23;8.53;;;9.10;99.90;;;;;;5040788;28;20520;-80
2021/12/30 00:32:03;;;;;;;58.73;8.47;;;9.10;99.90;;;;;;5037258;28;20041;-80
2021/12/30 00:34:29;;;;;;;46.87;6.77;;;9.10;99.90;;;;;;5043278;28;20040;-80
2021/12/30 00:36:56;;;;;;;52.60;7.43;;;9.10;99.90;;;;;;5059336;28;20075;-77
2021/12/30 00:39:21;;;;;;;46.43;7.27;;;9.10;99.90;;;;;;5039181;28;20041;-79
2021/12/30 00:41:47;;;;;;;61.53;7.27;;;9.10;99.90;;;;;;5061563;28;20143;-79
2021/12/30 00:44:13;;;;;;;61.60;7.73;;;9.00;99.90;;;;;;5084427;22;20056;-86
2021/12/30 00:46:39;;;;;;;58.17;7.13;;;9.00;99.90;;;;;;5057062;28;20044;-86
2021/12/30 00:49:05;;;;;;;57.03;6.97;;;9.00;99.90;;;;;;5036322;28;20083;-86
2021/12/30 00:51:31;;;;;;;51.50;7.30;;;8.90;99.90;;;;;;5053905;28;20051;-86
2021/12/30 00:53:58;;;;;;;52.17;7.87;;;8.90;99.90;;;;;;5072335;28;20044;-86
2021/12/30 00:56:23;;;;;;;55.53;7.80;;;8.80;99.90;;;;;;5057894;28;20047;-87
2021/12/30 00:58:49;;;;;;;52.63;7.87;;;8.80;99.90;;;;;;5059039;28;20108;-86
2021/12/30 01:01:15;;;;;;;57.20;8.20;;;8.80;99.90;;;;;;5057819;28;20266;-86
2021/12/30 01:03:42;;;;;;;51.80;8.20;;;8.80;99.90;;;;;;5062380;28;20049;-87
2021/12/30 01:06:08;;;;;;;59.17;7.97;;;8.80;99.90;;;;;;5062217;28;20048;-86
2021/12/30 01:08:34;;;;;;;49.87;7.20;;;8.80;99.90;;;;;;5067312;28;20044;-86
2021/12/30 01:11:05;;;;;;;53.87;7.63;;;8.80;99.90;;;;;;5076334;28;20078;-86
2021/12/30 01:13:32;;;;;;;58.00;7.83;;;8.80;99.90;;;;;;5071685;28;20047;-85
2021/12/30 01:16:01;;;;;;;57.43;8.00;;;8.80;99.90;;;;;;5073789;28;20554;-85
2021/12/30 01:18:38;;;;;;;55.43;7.23;;;8.70;99.90;;;;;;5067654;28;20039;-85
2021/12/30 01:21:06;;;;;;;46.77;7.03;;;8.70;99.90;;;;;;5073540;28;20134;-86
2021/12/30 01:23:32;;;;;;;56.03;8.33;;;8.70;99.90;;;;;;5050952;28;20252;-86
2021/12/30 01:25:58;;;;;;;59.47;8.30;;;8.70;99.90;;;;;;5090238;28;20044;-86
2021/12/30 01:28:26;;;;;;;46.17;7.37;;;8.70;99.90;;;;;;5057724;28;20067;-86
2021/12/30 01:30:52;;;;;;;52.40;7.27;;;8.70;99.90;;;;;;5060463;28;20071;-85
2021/12/30 01:33:19;;;;;;;54.13;7.30;;;8.70;99.90;;;;;;5077004;28;20100;-85
2021/12/30 01:35:45;;;;;;;48.07;7.57;;;8.70;99.90;;;;;;5059739;28;20036;-86
2021/12/30 01:38:15;;;;;;;58.20;7.37;;;8.70;99.90;;;;;;5059734;28;20036;-85
2021/12/30 01:40:42;;;;;;;41.93;6.73;;;8.70;99.90;;;;;;5058058;28;20078;-86
2021/12/30 01:43:10;;;;;;;54.63;8.30;;;8.70;99.90;;;;;;5091869;28;20096;-86
2021/12/30 01:45:37;;;;;;;52.23;6.93;;;8.70;99.90;;;;;;5071266;28;20096;-86
2021/12/30 01:48:04;;;;;;;44.10;8.07;;;8.70;99.90;;;;;;5074351;28;20504;-86
2021/12/30 01:50:29;;;;;;;49.77;8.33;;;8.70;99.90;;;;;;5071825;28;20043;-86
2021/12/30 01:52:55;;;;;;;59.00;7.63;;;8.70;99.90;;;;;;5067815;28;20446;-86
2021/12/30 01:55:22;;;;;;;54.97;8.00;;;8.70;99.90;;;;;;5059172;28;20050;-86
2021/12/30 01:57:49;;;;;;;61.63;8.07;;;8.70;99.90;;;;;;5077065;28;20039;-85
2021/12/30 02:00:19;;;;;;;45.57;7.23;;;8.70;99.90;;;;;;5091674;28;20070;-86
2021/12/30 02:02:47;;;;;;;60.10;6.93;;;8.70;99.90;;;;;;5082435;28;20039;-85
2021/12/30 02:05:12;;;;;;;48.50;6.37;;;8.70;99.90;;;;;;5092231;28;20577;-86
2021/12/30 02:07:38;;;;;;;53.40;7.60;;;8.70;99.90;;;;;;5058810;28;20044;-86
2021/12/30 02:10:06;;;;;;;46.17;7.43;;;8.70;99.90;;;;;;5062768;28;20035;-86
2021/12/30 02:12:33;;;;;;;56.80;8.33;;;8.70;99.90;;;;;;5062815;28;20040;-85
2021/12/30 02:14:59;;;;;;;43.80;7.70;;;8.60;99.90;;;;;;5074311;28;20068;-85
2021/12/30 02:17:25;;;;;;;64.63;7.93;;;8.60;99.90;;;;;;5060451;28;20440;-85
2021/12/30 02:19:58;;;;;;;64.93;8.60;;;8.60;99.90;;;;;;5074903;28;20390;-85
2021/12/30 02:22:25;;;;;;;52.03;9.35;;;8.60;99.90;;;;;;5076398;28;20379;-86
2021/12/30 02:24:51;;;;;;;62.87;9.90;;;8.70;99.90;;;;;;5056124;28;20088;-86
2021/12/30 02:27:17;;;;;;;57.37;9.80;;;8.60;99.90;;;;;;5084332;28;20044;-85
2021/12/30 02:29:43;;;;;;;68.47;12.93;;;8.70;99.90;;;;;;5078492;28;20036;-85
2021/12/30 02:32:08;;;;;;;81.47;13.33;;;8.70;99.90;;;;;;5093634;28;20039;-86
2021/12/30 02:34:36;;;;;;;79.40;16.70;;;8.80;99.90;;;;;;5079606;28;20488;-86
2021/12/30 02:37:04;;;;;;;81.70;17.50;;;8.90;99.90;;;;;;5057970;28;20498;-88
2021/12/30 02:39:30;;;;;;;79.23;17.53;;;9.00;99.90;;;;;;5055340;28;20044;-86
2021/12/30 02:41:56;;;;;;;87.40;18.10;;;9.00;99.90;;;;;;5054090;28;20035;-85
2021/12/30 02:44:22;;;;;;;92.43;19.80;;;9.10;99.90;;;;;;5050919;28;20040;-85
2021/12/30 02:46:50;;;;;;;79.87;18.50;;;9.20;99.90;;;;;;5076089;28;20043;-85
2021/12/30 02:49:16;;;;;;;88.00;20.07;;;9.20;99.90;;;;;;5061684;28;20047;-86
2021/12/30 02:51:42;;;;;;;79.57;19.13;;;9.30;99.90;;;;;;5058904;28;20593;-85
2021/12/30 02:54:09;;;;;;;93.07;21.47;;;9.30;99.90;;;;;;5063246;28;20039;-86
2021/12/30 02:56:35;;;;;;;87.30;20.17;;;9.30;99.90;;;;;;5064290;28;20040;-85
2021/12/30 02:59:01;;;;;;;89.57;22.27;;;9.40;99.90;;;;;;5060406;28;20036;-85
2021/12/30 03:01:29;;;;;;;86.23;20.73;;;9.40;99.90;;;;;;5077342;28;20040;-85
2021/12/30 03:03:56;;;;;;;77.47;21.13;;;9.50;99.90;;;;;;5074966;28;20405;-87
2021/12/30 03:06:22;;;;;;;84.30;20.10;;;9.50;99.90;;;;;;5072881;28;20050;-86
2021/12/30 03:08:49;;;;;;;81.90;20.27;;;9.60;99.90;;;;;;5076601;28;20040;-86
2021/12/30 03:11:17;;;;;;;80.87;20.77;;;9.60;99.90;;;;;;5071310;28;20048;-85
2021/12/30 03:13:44;;;;;;;83.50;21.53;;;9.70;99.90;;;;;;5054101;28;20086;-86
2021/12/30 03:16:13;;;;;;;84.53;20.57;;;9.70;99.90;;;;;;5065502;28;20032;-86
2021/12/30 03:18:40;;;;;;;77.93;19.97;;;9.70;99.90;;;;;;5055111;28;20036;-85
2021/12/30 03:21:08;;;;;;;71.97;19.43;;;9.80;99.90;;;;;;5069813;28;20089;-86
2021/12/30 03:23:34;;;;;;;74.13;20.50;;;9.80;99.90;;;;;;5075384;28;20046;-85
2021/12/30 03:26:01;;;;;;;70.73;18.37;;;9.80;99.90;;;;;;5060941;28;20055;-86
2021/12/30 03:28:28;;;;;;;80.67;21.03;;;9.80;99.90;;;;;;5078370;28;20506;-86
2021/12/30 03:30:58;;;;;;;80.77;20.63;;;9.90;99.90;;;;;;5078338;28;20424;-85
2021/12/30 03:33:24;;;;;;;80.07;20.97;;;9.90;99.90;;;;;;5055997;28;20480;-85
2021/12/30 03:35:50;;;;;;;85.70;20.80;;;9.90;99.90;;;;;;5091131;28;20054;-87
2021/12/30 03:38:16;;;;;;;77.77;21.07;;;10.00;99.90;;;;;;5060774;28;20047;-85
2021/12/30 03:40:42;;;;;;;70.03;19.30;;;10.00;99.90;;;;;;5060642;28;20074;-86
2021/12/30 03:43:10;;;;;;;85.00;21.83;;;10.10;99.90;;;;;;5057793;28;20122;-86
2021/12/30 03:45:37;;;;;;;70.20;20.17;;;10.00;99.90;;;;;;5090279;28;20055;-85
2021/12/30 03:48:04;;;;;;;82.27;19.97;;;10.00;99.90;;;;;;5076651;28;20067;-87
2021/12/30 03:50:30;;;;;;;88.23;21.03;;;10.10;99.90;;;;;;5054704;28;20044;-86
2021/12/30 03:52:58;;;;;;;83.13;21.53;;;10.10;99.90;;;;;;5079627;28;20665;-87
2021/12/30 03:55:28;;;;;;;80.23;20.37;;;10.10;99.90;;;;;;5059657;28;20044;-86
2021/12/30 03:57:54;;;;;;;82.23;20.07;;;10.10;99.90;;;;;;5080005;28;20028;-86
2021/12/30 04:00:21;;;;;;;84.97;22.00;;;10.10;99.90;;;;;;5074938;28;20043;-87
2021/12/30 04:02:49;;;;;;;70.53;20.07;;;10.10;99.90;;;;;;5072979;28;20035;-85
2021/12/30 04:05:14;;;;;;;82.00;19.13;;;10.10;99.90;;;;;;5077746;28;20104;-85
2021/12/30 04:07:40;;;;;;;78.47;20.07;;;10.10;99.90;;;;;;5085220;28;20043;-86
2021/12/30 04:10:08;;;;;;;76.97;18.90;;;10.10;99.90;;;;;;5057587;28;20122;-85
2021/12/30 04:12:34;;;;;;;80.17;20.47;;;10.10;99.90;;;;;;5068986;28;20048;-87
2021/12/30 04:15:01;;;;;;;77.50;19.93;;;10.10;99.90;;;;;;5096099;28;20416;-85
2021/12/30 04:17:26;;;;;;;70.27;19.53;;;10.10;99.90;;;;;;5052755;28;20040;-86
2021/12/30 04:19:53;;;;;;;76.17;18.73;;;10.10;99.90;;;;;;5077931;28;20046;-86
2021/12/30 04:22:19;;;;;;;70.77;18.57;;;10.10;99.90;;;;;;5062225;28;20050;-86
2021/12/30 04:24:46;;;;;;;78.00;18.57;;;10.00;99.90;;;;;;5059737;28;20287;-85
2021/12/30 04:27:12;;;;;;;79.00;18.83;;;10.10;99.90;;;;;;5077475;28;20093;-87
2021/12/30 04:29:38;;;;;;;78.50;19.70;;;10.10;99.90;;;;;;5075614;28;20085;-85
2021/12/30 04:32:04;;;;;;;79.60;19.70;;;10.10;99.90;;;;;;5071608;28;20453;-85
2021/12/30 04:34:30;;;;;;;72.80;19.50;;;10.20;99.90;;;;;;5077696;28;20438;-86
2021/12/30 04:36:59;;;;;;;80.60;19.27;;;10.20;99.90;;;;;;5080469;28;20138;-86
2021/12/30 04:39:26;;;;;;;75.47;19.27;;;10.30;99.90;;;;;;5077341;28;20036;-85
2021/12/30 04:41:51;;;;;;;77.50;18.13;;;10.30;99.90;;;;;;5086605;28;20063;-85
2021/12/30 04:44:17;;;;;;;73.23;18.70;;;10.30;99.90;;;;;;5068807;28;20497;-85
2021/12/30 04:46:43;;;;;;;79.43;19.37;;;10.50;99.90;;;;;;5058185;28;20548;-85
2021/12/30 04:49:09;;;;;;;85.97;20.70;;;10.40;99.90;;;;;;5053123;28;20057;-86
2021/12/30 04:51:34;;;;;;;82.30;19.50;;;10.50;99.90;;;;;;5073874;28;20416;-86
2021/12/30 04:54:01;;;;;;;91.47;20.90;;;10.50;99.90;;;;;;5075537;28;20066;-85
2021/12/30 04:56:31;;;;;;;88.80;22.47;;;10.60;99.90;;;;;;5077380;28;20404;-85
2021/12/30 04:58:57;;;;;;;95.17;21.87;;;10.60;99.90;;;;;;5075544;28;20054;-85
2021/12/30 05:01:23;;;;;;;81.30;21.77;;;10.60;99.90;;;;;;5064091;28;20039;-85
2021/12/30 05:03:49;;;;;;;88.20;21.83;;;10.70;99.90;;;;;;5057183;28;20131;-85
2021/12/30 05:06:14;;;;;;;97.20;22.60;;;10.70;99.90;;;;;;5064483;28;20067;-85
2021/12/30 05:08:40;;;;;;;84.93;21.87;;;10.70;99.90;;;;;;5060715;28;20070;-85
2021/12/30 05:11:07;;;;;;;84.37;23.77;;;10.70;99.90;;;;;;5075419;28;20083;-85
2021/12/30 05:13:33;;;;;;;71.70;22.53;;;10.80;99.90;;;;;;5074505;28;20048;-86
2021/12/30 05:15:59;;;;;;;64.57;23.20;;;10.80;99.90;;;;;;5075191;28;20039;-86
2021/12/30 05:18:31;;;;;;;73.83;24.17;;;10.80;99.90;;;;;;5055978;28;20497;-85
2021/12/30 05:20:57;;;;;;;64.90;24.63;;;10.80;99.90;;;;;;5068741;28;20036;-85
2021/12/30 05:23:23;;;;;;;66.93;23.47;;;10.90;99.90;;;;;;5089152;28;20068;-85
2021/12/30 05:25:49;;;;;;;59.20;22.33;;;10.90;99.90;;;;;;5061411;28;20035;-85
2021/12/30 05:28:16;;;;;;;61.17;22.63;;;11.00;99.90;;;;;;5048008;28;20093;-86
2021/12/30 05:30:41;;;;;;;52.70;21.07;;;10.90;99.90;;;;;;5060210;28;20404;-85
2021/12/30 05:33:07;;;;;;;53.57;22.30;;;11.00;99.90;;;;;;5087319;28;20055;-86
2021/12/30 05:35:33;;;;;;;54.30;21.37;;;11.00;99.90;;;;;;5064996;28;20478;-85
2021/12/30 05:38:01;;;;;;;53.93;20.83;;;11.10;99.90;;;;;;5069759;28;20630;-87
2021/12/30 05:40:27;;;;;;;48.27;20.30;;;11.10;99.90;;;;;;5075445;28;20036;-86
2021/12/30 05:42:53;;;;;;;47.80;21.47;;;11.10;99.90;;;;;;5066698;28;20117;-86
2021/12/30 05:45:21;;;;;;;49.53;20.83;;;11.10;99.90;;;;;;5074618;28;20039;-86
2021/12/30 05:47:49;;;;;;;44.70;19.83;;;11.20;99.90;;;;;;5072156;28;20420;-87
2021/12/30 05:50:18;;;;;;;47.00;21.73;;;11.20;99.90;;;;;;5067930;28;20047;-86
2021/12/30 05:52:44;;;;;;;45.63;21.90;;;11.20;99.90;;;;;;5057503;28;20039;-86
2021/12/30 05:55:11;;;;;;;58.30;22.03;;;11.20;99.90;;;;;;5065176;28;20477;-88
2021/12/30 05:57:37;;;;;;;56.30;22.13;;;11.30;99.90;;;;;;5052769;28;20032;-87
2021/12/30 06:00:05;;;;;;;60.47;23.20;;;11.30;99.90;;;;;;5078927;28;20036;-87
2021/12/30 06:02:32;;;;;;;64.23;25.50;;;11.30;99.90;;;;;;5057848;28;20113;-86
2021/12/30 06:04:58;;;;;;;77.07;26.47;;;11.40;99.90;;;;;;5072124;28;20071;-86
2021/12/30 06:07:24;;;;;;;85.80;28.73;;;11.30;99.90;;;;;;5090045;28;20116;-86
2021/12/30 06:09:50;;;;;;;82.13;28.77;;;11.40;99.90;;;;;;5071762;28;20044;-86
2021/12/30 06:12:15;;;;;;;95.50;29.80;;;11.40;99.90;;;;;;5064284;28;20447;-87
2021/12/30 06:14:41;;;;;;;98.70;30.13;;;11.40;99.90;;;;;;5086234;28;20039;-87
2021/12/30 06:17:08;;;;;;;96.83;29.73;;;11.50;99.90;;;;;;5073884;28;20093;-87
2021/12/30 06:19:35;;;;;;;113.07;31.93;;;11.50;99.90;;;;;;5055171;28;20039;-87
2021/12/30 06:22:01;;;;;;;109.93;32.40;;;11.50;99.90;;;;;;5075276;28;20036;-87
2021/12/30 06:24:26;;;;;;;114.77;33.87;;;11.60;99.90;;;;;;5068408;28;20051;-87
2021/12/30 06:26:52;;;;;;;109.70;31.17;;;11.60;99.90;;;;;;5074475;28;20057;-87
2021/12/30 06:29:18;;;;;;;115.67;32.53;;;11.60;99.90;;;;;;5074047;28;20040;-86
2021/12/30 06:31:44;;;;;;;100.73;29.07;;;11.60;99.90;;;;;;5072744;28;20056;-87
2021/12/30 06:34:09;;;;;;;96.80;28.37;;;11.70;99.90;;;;;;5057247;28;20043;-87
2021/12/30 06:36:37;;;;;;;88.07;27.33;;;11.70;99.90;;;;;;5056479;28;20485;-86
2021/12/30 06:39:03;;;;;;;94.13;29.07;;;11.70;99.90;;;;;;5062743;28;20485;-85
2021/12/30 06:41:29;;;;;;;91.17;27.77;;;11.70;99.90;;;;;;5059270;28;20039;-86
2021/12/30 06:43:55;;;;;;;87.97;27.50;;;11.70;99.90;;;;;;5097418;22;20044;-79
2021/12/30 06:46:23;;;;;;;84.93;26.93;;;11.70;99.90;;;;;;5100459;28;20138;-79
2021/12/30 06:48:48;;;;;;;88.20;27.33;;;11.80;99.90;;;;;;5081485;28;20050;-78
2021/12/30 06:51:17;;;;;;;81.83;26.73;;;11.80;99.90;;;;;;5098152;28;20390;-77
2021/12/30 06:53:45;;;;;;;81.70;26.47;;;11.80;99.90;;;;;;5099777;28;20110;-77
2021/12/30 06:56:11;;;;;;;83.83;26.03;;;11.80;99.90;;;;;;5082979;27;20044;-78
2021/12/30 06:58:36;;;;;;;62.60;23.70;;;11.80;99.90;;;;;;5083277;27;20039;-79
2021/12/30 07:01:04;;;;;;;72.70;23.70;;;11.90;99.90;;;;;;5084956;27;20083;-77
2021/12/30 07:03:29;;;;;;;60.77;23.07;;;11.90;99.90;;;;;;5097408;28;20039;-76
2021/12/30 07:05:55;;;;;;;66.20;22.63;;;11.90;99.90;;;;;;5084082;28;20119;-80
2021/12/30 07:08:22;;;;;;;60.60;21.90;;;11.90;99.90;;;;;;5106099;27;20054;-79
2021/12/30 07:10:49;;;;;;;57.80;21.83;;;11.90;99.90;;;;;;5086408;27;20062;-79
2021/12/30 07:13:15;;;;;;;52.67;20.20;;;11.90;99.90;;;;;;5084699;27;20052;-80
2021/12/30 07:15:41;;;;;;;59.43;20.90;;;11.90;99.90;;;;;;5102787;27;20041;-79
2021/12/30 07:18:07;;;;;;;56.33;20.53;;;11.90;99.90;;;;;;5122364;27;20515;-79
2021/12/30 07:20:33;;;;;;;41.97;16.87;;;12.00;99.90;;;;;;5101185;28;20130;-78
2021/12/30 07:22:58;;;;;;;45.77;17.10;;;11.90;99.90;;;;;;5095412;28;20047;-78
2021/12/30 07:25:24;;;;;;;34.47;15.07;;;12.00;99.90;;;;;;5063267;28;20046;-78
2021/12/30 07:27:54;;;;;;;29.17;13.27;;;12.00;99.90;;;;;;5097882;28;20039;-80
2021/12/30 07:30:22;;;;;;;29.10;13.07;;;12.00;99.90;;;;;;5093510;27;20048;-80
2021/12/30 07:32:48;;;;;;;27.73;11.93;;;12.00;99.90;;;;;;5077154;28;20107;-79
2021/12/30 07:35:16;;;;;;;16.40;9.80;;;12.00;99.90;;;;;;5098805;28;20050;-78
2021/12/30 07:37:41;;;;;;;18.73;10.43;;;12.00;99.90;;;;;;5094319;28;20518;-79
2021/12/30 07:40:08;;;;;;;14.33;7.27;;;12.00;99.90;;;;;;5080034;28;20119;-78
2021/12/30 07:42:33;;;;;;;13.47;6.97;;;12.00;99.90;;;;;;5092385;28;20043;-79
2021/12/30 07:45:01;;;;;;;9.67;5.43;;;12.00;99.90;;;;;;5093100;28;20089;-80
2021/12/30 07:47:27;;;;;;;9.30;5.70;;;12.00;99.90;;;;;;5076097;28;20134;-80
2021/12/30 07:49:52;;;;;;;9.60;5.17;;;12.10;99.90;;;;;;5093529;28;20517;-81
2021/12/30 07:52:19;;;;;;;10.40;4.97;;;12.00;99.90;;;;;;5079172;28;20078;-80
2021/12/30 07:54:44;;;;;;;9.00;5.30;;;12.10;99.90;;;;;;5096602;27;20535;-80
2021/12/30 07:57:10;;;;;;;8.07;5.20;;;12.10;99.90;;;;;;5066209;27;20070;-79
2021/12/30 07:59:36;;;;;;;7.27;4.70;;;12.10;99.90;;;;;;5068630;27;20087;-79
2021/12/30 08:02:04;;;;;;;8.70;5.37;;;12.10;99.90;;;;;;5095000;27;20047;-79
2021/12/30 08:04:30;;;;;;;8.60;5.37;;;12.10;99.90;;;;;;5080537;27;20047;-79
2021/12/30 08:06:56;;;;;;;8.03;6.07;;;12.10;99.90;;;;;;5087142;27;20408;-78
2021/12/30 08:09:22;;;;;;;7.57;5.53;;;12.10;99.90;;;;;;5087106;27;20057;-80
2021/12/30 08:11:48;;;;;;;7.37;5.47;;;12.10;99.90;;;;;;5083641;27;20075;-80
2021/12/30 08:14:14;;;;;;;7.83;5.90;;;12.10;99.90;;;;;;5071790;27;20700;-78
2021/12/30 08:16:40;;;;;;;7.30;5.43;;;12.20;99.90;;;;;;5082690;27;20404;-79
2021/12/30 08:19:07;;;;;;;7.50;5.60;;;12.20;99.90;;;;;;5088676;27;20035;-80
2021/12/30 08:21:32;;;;;;;6.83;5.23;;;12.20;99.90;;;;;;5085160;27;20066;-77
2021/12/30 08:23:58;;;;;;;6.77;5.37;;;12.20;99.90;;;;;;5064198;27;20039;-79
2021/12/30 08:26:24;;;;;;;6.50;5.10;;;12.20;99.90;;;;;;5066087;27;20089;-79
2021/12/30 08:28:50;;;;;;;6.07;4.83;;;12.20;99.90;;;;;;5067486;27;20583;-79
2021/12/30 08:31:16;;;;;;;6.60;4.70;;;12.30;99.90;;;;;;5082692;27;20078;-80
2021/12/30 08:33:42;;;;;;;7.17;5.00;;;12.30;99.90;;;;;;5085005;27;20039;-77
2021/12/30 08:36:09;;;;;;;7.33;5.37;;;12.30;99.90;;;;;;5093782;27;20076;-80
2021/12/30 08:38:35;;;;;;;8.57;6.17;;;12.30;99.90;;;;;;5083620;27;20050;-79
2021/12/30 08:41:01;;;;;;;11.53;7.53;;;12.30;99.90;;;;;;5075862;27;20047;-76
2021/12/30 08:43:27;;;;;;;11.67;7.63;;;12.30;99.90;;;;;;5100393;27;20134;-77
2021/12/30 08:45:53;;;;;;;14.30;8.90;;;12.30;99.90;;;;;;5073928;27;20497;-78
2021/12/30 08:48:21;;;;;;;14.77;9.73;;;12.30;99.90;;;;;;5073600;28;20126;-76
2021/12/30 08:50:48;;;;;;;14.67;9.90;;;12.50;99.90;;;;;;5079057;27;20096;-78
2021/12/30 08:53:15;;;;;;;16.93;9.83;;;12.40;99.90;;;;;;5100462;27;20053;-77
2021/12/30 08:55:41;;;;;;;17.60;10.07;;;12.40;99.90;;;;;;5088273;27;20039;-78
2021/12/30 08:58:07;;;;;;;13.63;8.43;;;12.50;99.90;;;;;;5095691;28;20092;-80
2021/12/30 09:00:36;;;;;;;11.73;9.10;;;12.50;99.90;;;;;;5074814;28;20043;-82
2021/12/30 09:03:04;;;;;;;16.83;9.93;;;12.50;99.90;;;;;;5071589;28;20047;-79
2021/12/30 09:05:31;;;;;;;15.90;9.73;;;12.50;99.90;;;;;;5072159;27;20039;-78
2021/12/30 09:07:56;;;;;;;19.83;9.83;;;12.50;99.90;;;;;;5087751;28;20039;-79
2021/12/30 09:10:24;;;;;;;18.20;7.57;;;12.60;99.90;;;;;;5075868;28;20044;-76
2021/12/30 09:12:52;;;;;;;16.17;7.20;;;12.60;99.90;;;;;;5074467;28;20047;-78
2021/12/30 09:15:19;;;;;;;12.73;6.60;;;12.60;99.90;;;;;;5089653;28;20044;-79
2021/12/30 09:17:47;;;;;;;12.90;5.70;;;12.60;99.90;;;;;;5072526;28;20084;-81
2021/12/30 09:20:13;;;;;;;16.17;6.27;;;12.60;99.90;;;;;;5070890;28;20035;-79
2021/12/30 09:22:39;;;;;;;15.57;6.50;;;12.70;99.90;;;;;;5090071;28;20050;-78
2021/12/30 09:25:08;;;;;;;14.43;6.43;;;12.70;99.90;;;;;;5087896;28;20047;-83
2021/12/30 09:27:37;;;;;;;14.97;6.17;;;12.70;99.90;;;;;;5074086;28;20476;-79
2021/12/30 09:30:04;;;;;;;11.87;6.23;;;12.70;99.90;;;;;;5072133;28;20539;-79
2021/12/30 09:32:31;;;;;;;16.67;7.23;;;12.70;99.90;;;;;;5073868;28;20413;-79
2021/12/30 09:34:56;;;;;;;15.07;7.00;;;12.70;99.90;;;;;;5076284;28;20040;-77
2021/12/30 09:37:22;;;;;;;19.53;7.30;;;12.70;99.90;;;;;;5058835;28;20542;-80
2021/12/30 09:39:48;;;;;;;15.73;7.83;;;12.70;99.90;;;;;;5072219;28;20468;-79
2021/12/30 09:42:14;;;;;;;11.77;7.67;;;12.70;99.90;;;;;;5088199;28;20089;-76
2021/12/30 09:44:41;;;;;;;20.53;8.20;;;12.70;99.90;;;;;;5073703;28;20127;-80
2021/12/30 09:47:07;;;;;;;15.10;7.83;;;12.70;99.90;;;;;;5075178;28;20040;-79
2021/12/30 09:49:33;;;;;;;13.60;7.50;;;12.70;99.90;;;;;;5091711;28;20538;-78
2021/12/30 09:51:58;;;;;;;14.97;8.30;;;12.70;99.90;;;;;;5074974;28;20044;-80
2021/12/30 09:54:24;;;;;;;17.13;8.53;;;12.70;99.90;;;;;;5091813;28;20055;-79
2021/12/30 09:56:52;;;;;;;17.60;9.40;;;12.80;99.90;;;;;;5072400;28;20128;-80
2021/12/30 09:59:20;;;;;;;15.63;8.00;;;12.80;99.90;;;;;;5058530;28;20089;-80
2021/12/30 10:01:47;;;;;;;12.53;7.80;;;12.80;99.90;;;;;;5072694;28;20055;-77
2021/12/30 10:04:13;;;;;;;14.87;7.33;;;12.80;99.90;;;;;;5071702;28;20060;-81
2021/12/30 10:06:44;;;;;;;12.33;7.07;;;12.80;99.90;;;;;;5078124;28;20047;-81
2021/12/30 10:09:13;;;;;;;12.43;6.57;;;12.80;99.90;;;;;;5067068;27;20493;-82
2021/12/30 10:11:44;;;;;;;14.83;6.73;;;12.80;99.90;;;;;;5093236;28;20039;-77
2021/12/30 10:14:10;;;;;;;11.87;7.00;;;12.80;99.90;;;;;;5081520;27;20036;-80
2021/12/30 10:16:35;;;;;;;17.03;6.83;;;12.80;99.90;;;;;;5072177;27;20382;-77
2021/12/30 10:19:05;;;;;;;17.70;7.10;;;12.80;99.90;;;;;;5083922;27;20542;-79
2021/12/30 10:21:33;;;;;;;14.20;7.73;;;12.80;99.90;;;;;;5076565;27;20883;-79
2021/12/30 10:24:00;;;;;;;15.33;6.67;;;12.80;99.90;;;;;;5099125;27;20575;-79
2021/12/30 10:26:26;;;;;;;18.20;6.63;;;12.80;99.90;;;;;;5085980;27;20560;-78
2021/12/30 10:28:55;;;;;;;13.23;6.10;;;12.80;99.90;;;;;;5098729;27;20036;-79
2021/12/30 10:31:23;;;;;;;17.10;6.47;;;12.80;99.90;;;;;;5104810;28;20043;-79
2021/12/30 10:33:52;;;;;;;16.33;5.80;;;12.80;99.90;;;;;;5081508;28;20039;-79
2021/12/30 10:36:21;;;;;;;16.07;5.73;;;12.80;99.90;;;;;;5082384;28;20454;-79
2021/12/30 10:38:47;;;;;;;16.47;5.40;;;12.80;99.90;;;;;;5078928;27;20421;-78
2021/12/30 10:41:13;;;;;;;17.17;5.80;;;12.80;99.90;;;;;;5063581;28;20288;-78
2021/12/30 10:43:46;;;;;;;16.30;4.80;;;12.70;99.90;;;;;;5100958;27;20466;-79
2021/12/30 10:46:18;;;;;;;18.73;4.97;;;12.70;99.90;;;;;;5099744;27;20090;-80
2021/12/30 10:48:59;;;;;;;19.50;5.90;;;12.70;99.90;;;;;;5095321;27;20170;-77
2021/12/30 10:51:33;;;;;;;20.33;5.33;;;12.80;99.90;;;;;;5081003;27;20046;-79
2021/12/30 10:54:09;;;;;;;19.23;5.05;;;12.80;99.90;;;;;;5083007;27;20052;-80
2021/12/30 10:56:39;;;;;;;19.03;5.73;;;12.80;99.90;;;;;;5058894;27;20455;-80
2021/12/30 10:59:11;;;;;;;24.77;5.80;;;12.80;99.90;;;;;;5090622;28;20040;-79
2021/12/30 11:01:39;;;;;;;22.03;5.97;;;12.80;99.90;;;;;;5104119;28;20036;-79
2021/12/30 11:04:05;;;;;;;24.77;5.67;;;12.80;99.90;;;;;;5087204;28;20051;-81
2021/12/30 11:06:32;;;;;;;24.53;5.63;;;12.80;99.90;;;;;;5087610;28;20051;-79
2021/12/30 11:09:06;;;;;;;22.20;5.53;;;12.80;99.90;;;;;;5085513;27;20051;-79
2021/12/30 11:11:32;;;;;;;24.30;5.63;;;12.80;99.90;;;;;;5074103;28;20047;-81
2021/12/30 11:14:00;;;;;;;21.77;5.90;;;12.80;99.90;;;;;;5075755;28;20104;-79
2021/12/30 11:16:26;;;;;;;26.53;5.70;;;12.90;99.90;;;;;;5094041;28;20064;-79
2021/12/30 11:18:51;;;;;;;30.83;5.90;;;12.80;99.90;;;;;;5063090;27;20078;-81
2021/12/30 11:21:38;;;;;;;24.50;6.13;;;12.90;99.90;;;;;;5084499;27;20106;-80
2021/12/30 11:24:05;;;;;;;25.07;5.40;;;12.90;99.90;;;;;;5063938;27;20051;-77
2021/12/30 11:26:32;;;;;;;32.43;6.23;;;12.80;99.90;;;;;;5082484;27;20392;-80
2021/12/30 11:28:58;;;;;;;27.60;6.17;;;12.80;99.90;;;;;;5080168;27;20044;-79
2021/12/30 11:31:24;;;;;;;30.23;6.40;;;12.80;99.90;;;;;;5085808;27;20043;-80
2021/12/30 11:33:50;;;;;;;27.13;6.03;;;12.80;99.90;;;;;;5090205;27;20039;-79
2021/12/30 11:36:17;;;;;;;27.40;6.17;;;12.80;99.90;;;;;;5079930;27;20101;-81
2021/12/30 11:38:44;;;;;;;26.03;6.20;;;12.90;99.90;;;;;;5103990;27;20226;-80
2021/12/30 11:41:16;;;;;;;32.70;6.20;;;12.90;99.90;;;;;;5083134;27;20096;-80
2021/12/30 11:43:44;;;;;;;29.57;5.87;;;12.90;99.90;;;;;;5079598;27;20035;-79
2021/12/30 11:46:41;;;;;;;28.90;6.03;;;12.90;99.90;;;;;;5083056;27;20405;-79
2021/12/30 11:49:08;;;;;;;31.20;6.93;;;12.90;99.90;;;;;;5066807;27;20890;-80
2021/12/30 11:51:45;;;;;;;30.70;5.37;;;12.80;99.90;;;;;;5082275;27;20040;-80
2021/12/30 11:54:36;;;;;;;26.43;5.33;;;12.80;99.90;;;;;;5072210;27;20034;-79
2021/12/30 11:57:28;;;;;;;28.60;5.97;;;12.80;99.90;;;;;;5081650;27;20500;-80
2021/12/30 11:59:55;;;;;;;31.57;6.07;;;12.90;99.90;;;;;;5088952;28;20047;-80
2021/12/30 12:02:31;;;;;;;32.87;6.60;;;12.90;99.90;;;;;;5091198;28;20043;-81
2021/12/30 12:04:57;;;;;;;28.83;5.33;;;13.00;99.90;;;;;;5092175;27;20050;-81
2021/12/30 12:07:23;;;;;;;30.93;6.50;;;12.90;99.90;;;;;;5081099;27;21498;-80
2021/12/30 12:09:50;;;;;;;30.57;5.30;;;12.90;99.90;;;;;;5077058;27;20044;-81
2021/12/30 12:12:31;;;;;;;28.33;5.97;;;12.90;99.90;;;;;;5090376;27;20125;-82
2021/12/30 12:15:01;;;;;;;33.73;5.67;;;12.90;99.90;;;;;;5096151;27;20118;-79
2021/12/30 12:17:35;;;;;;;27.30;5.33;;;12.90;99.90;;;;;;5094836;27;20700;-79
2021/12/30 12:20:12;;;;;;;;;;;12.90;99.90;;;;;;5097291;27;20043;-80
2021/12/30 12:22:38;;;;;;;27.67;6.03;;;12.90;99.90;;;;;;5097463;27;19998;-79
2021/12/30 12:25:11;;;;;;;33.47;6.00;;;12.90;99.90;;;;;;5090032;28;20445;-78
2021/12/30 12:27:38;;;;;;;24.60;5.47;;;12.90;99.90;;;;;;5088612;27;20042;-80
2021/12/30 12:30:07;;;;;;;29.27;5.90;;;12.90;99.90;;;;;;5065551;27;20509;-80
2021/12/30 12:32:39;;;;;;;25.20;4.70;;;12.90;99.90;;;;;;5077273;27;20047;-80
2021/12/30 12:35:23;;;;;;;28.63;4.73;;;12.90;99.90;;;;;;5082293;27;20045;-81